Time;durP1;ratioP1;P1;durP2;ratioP2;P2;SDS_P1;SDS_P2;PMS_P1;PMS_P2;Temp;Humidity;BMP_temperature;BMP_pressure;BME280_temperature;BME280_humidity;BME280_pressure;Samples;Min_cycle;Max_cycle;Signal;HPM_P1;HPM_P2
2022/11/06 00:08:05;;;;;;;0.00;0.00;;;4.50;93.90;;;;;;21094619;28;20557;-66
2022/11/06 00:18:08;;;;;;;0.15;0.00;;;4.60;93.30;;;;;;21112191;28;20058;-66
2022/11/06 00:28:10;;;;;;;0.00;0.00;;;4.50;93.60;;;;;;21080811;28;20027;-66
2022/11/06 00:38:13;;;;;;;0.00;0.00;;;4.40;93.90;;;;;;21121502;28;20043;-55
2022/11/06 00:48:16;;;;;;;0.00;0.00;;;4.50;93.50;;;;;;21055165;28;20105;-52
2022/11/06 00:58:19;;;;;;;0.10;0.00;;;4.40;94.00;;;;;;21132100;28;20372;-52
2022/11/06 01:08:22;;;;;;;0.00;0.00;;;4.30;94.10;;;;;;21101714;28;20040;-65
2022/11/06 01:18:24;;;;;;;0.08;0.00;;;4.20;94.50;;;;;;21101981;28;20093;-54
2022/11/06 01:28:27;;;;;;;0.00;0.00;;;4.10;94.60;;;;;;21109141;28;20120;-56
2022/11/06 01:38:30;;;;;;;0.85;0.00;;;3.90;94.70;;;;;;21056734;28;20040;-66
2022/11/06 01:48:32;;;;;;;0.00;0.00;;;3.80;95.00;;;;;;21127623;28;20080;-53
2022/11/06 01:58:39;;;;;;;0.00;0.00;;;3.60;95.80;;;;;;21098563;28;20044;-66
2022/11/06 02:08:46;;;;;;;0.30;0.00;;;3.70;96.00;;;;;;21116683;28;20027;-54
2022/11/06 02:19:26;;;;;;;0.00;0.00;;;3.80;95.70;;;;;;21094059;28;20031;-66
2022/11/06 02:29:50;;;;;;;0.00;0.00;;;4.10;94.80;;;;;;21097849;28;20483;-66
2022/11/06 02:39:56;;;;;;;0.00;0.00;;;4.00;94.90;;;;;;21144798;28;20028;-66
2022/11/06 02:50:10;;;;;;;0.10;0.00;;;3.70;95.80;;;;;;21096839;28;20401;-65
2022/11/06 03:00:16;;;;;;;0.00;0.00;;;3.40;96.00;;;;;;21066229;28;20031;-55
2022/11/06 03:10:19;;;;;;;0.52;0.10;;;3.30;96.20;;;;;;21087299;28;20097;-68
2022/11/06 03:20:36;;;;;;;0.30;0.00;;;3.40;95.70;;;;;;21131729;28;20412;-56
2022/11/06 03:30:51;;;;;;;0.00;0.00;;;3.50;95.30;;;;;;21136457;28;20404;-66
2022/11/06 03:41:00;;;;;;;0.00;0.00;;;3.50;95.70;;;;;;21076481;28;20097;-56
2022/11/06 03:51:08;;;;;;;0.00;0.00;;;3.30;95.80;;;;;;21075641;28;20055;-65
2022/11/06 04:01:15;;;;;;;0.00;0.00;;;2.90;97.20;;;;;;21079886;28;20069;-65
2022/11/06 04:22:30;;;;;;;0.40;0.00;;;2.90;96.90;;;;;;21122215;28;20562;-57
2022/11/06 04:33:10;;;;;;;0.00;0.00;;;3.60;95.70;;;;;;21073707;28;20036;-54
2022/11/06 04:43:25;;;;;;;0.00;0.00;;;3.40;96.10;;;;;;21098286;28;20084;-65
2022/11/06 04:53:30;;;;;;;0.00;0.00;;;;;;;;;;21104320;28;20052;-55
2022/11/06 05:03:33;;;;;;;0.00;0.00;;;2.50;97.70;;;;;;21053708;28;20062;-56
2022/11/06 05:13:37;;;;;;;0.00;0.00;;;2.00;99.50;;;;;;21090439;28;20036;-55
2022/11/06 05:23:41;;;;;;;0.03;0.00;;;1.60;99.80;;;;;;21069462;28;20093;-65
2022/11/06 05:33:44;;;;;;;0.00;0.00;;;1.50;99.90;;;;;;21119765;28;20039;-65
2022/11/06 05:43:46;;;;;;;0.00;0.00;;;1.50;99.90;;;;;;21066829;28;20044;-55
2022/11/06 05:53:49;;;;;;;0.00;0.00;;;1.40;99.90;;;;;;21111071;28;20044;-64
2022/11/06 06:03:52;;;;;;;0.00;0.00;;;1.80;99.50;;;;;;21090808;28;20032;-54
2022/11/06 06:13:54;;;;;;;0.00;0.00;;;2.10;99.30;;;;;;21072050;28;20040;-64
2022/11/06 06:23:57;;;;;;;0.00;0.00;;;2.20;98.60;;;;;;21084877;28;20036;-56
2022/11/06 06:33:59;;;;;;;0.08;0.00;;;2.60;97.90;;;;;;21107456;28;20081;-55
2022/11/06 06:44:02;;;;;;;0.00;0.00;;;3.10;97.40;;;;;;21097759;28;20035;-56
2022/11/06 06:54:04;;;;;;;0.15;0.00;;;3.40;97.30;;;;;;21068045;28;20044;-66
2022/11/06 07:04:09;;;;;;;0.00;0.00;;;3.20;98.10;;;;;;21108967;28;20100;-67
2022/11/06 07:14:11;;;;;;;0.00;0.00;;;3.30;98.40;;;;;;21095327;28;20093;-60
2022/11/06 07:24:14;;;;;;;0.00;0.00;;;3.50;99.10;;;;;;21111072;28;20453;-60
2022/11/06 07:34:16;;;;;;;0.00;0.00;;;4.10;97.10;;;;;;21113705;28;20393;-59
2022/11/06 07:44:19;;;;;;;0.00;0.00;;;5.20;94.90;;;;;;21075203;28;20454;-57
2022/11/06 07:54:21;;;;;;;0.00;0.00;;;6.20;94.00;;;;;;21125362;28;20043;-59
2022/11/06 08:04:24;;;;;;;0.00;0.00;;;6.90;92.90;;;;;;21059654;28;20373;-57
2022/11/06 08:14:27;;;;;;;0.00;0.00;;;7.40;92.20;;;;;;21140910;28;20039;-58
2022/11/06 08:24:29;;;;;;;0.00;0.00;;;7.90;91.70;;;;;;21073754;28;20058;-58
2022/11/06 08:34:34;;;;;;;0.10;0.00;;;8.60;93.50;;;;;;21138175;28;20505;-58
2022/11/06 08:44:37;;;;;;;0.00;0.00;;;9.50;94.30;;;;;;21092965;28;20086;-58
2022/11/06 08:54:39;;;;;;;0.00;0.00;;;10.10;94.40;;;;;;21031690;28;20067;-58
2022/11/06 09:04:43;;;;;;;0.10;0.00;;;10.40;95.50;;;;;;21051448;28;20032;-58
2022/11/06 09:14:45;;;;;;;0.00;0.00;;;10.90;94.30;;;;;;21003454;28;20036;-59
2022/11/06 09:24:48;;;;;;;0.10;0.00;;;11.20;92.30;;;;;;20989604;28;20054;-58
2022/11/06 09:34:50;;;;;;;0.00;0.00;;;11.40;92.70;;;;;;21024789;28;20040;-59
2022/11/06 09:45:22;;;;;;;0.00;0.00;;;11.50;90.40;;;;;;20987296;28;20100;-59
2022/11/06 09:55:32;;;;;;;0.20;0.00;;;11.70;84.50;;;;;;21031132;28;20040;-58
2022/11/06 10:05:39;;;;;;;0.20;0.00;;;11.90;88.90;;;;;;21101770;28;20067;-58
2022/11/06 10:16:09;;;;;;;0.00;0.00;;;12.20;90.90;;;;;;21050866;28;20085;-60
2022/11/06 10:26:18;;;;;;;0.00;0.00;;;12.60;91.70;;;;;;21104580;28;20085;-58
2022/11/06 10:36:42;;;;;;;0.00;0.00;;;12.90;90.50;;;;;;21127653;28;20032;-58
2022/11/06 10:47:17;;;;;;;0.00;0.00;;;13.00;85.70;;;;;;21094223;28;20044;-58
2022/11/06 10:57:37;;;;;;;0.25;0.00;;;12.90;91.40;;;;;;21102493;28;20065;-58
2022/11/06 11:07:40;;;;;;;0.10;0.10;;;13.10;86.70;;;;;;21142171;28;20105;-59
2022/11/06 11:18:29;;;;;;;0.10;0.00;;;12.80;90.70;;;;;;21144701;28;20067;-59
2022/11/06 11:28:37;;;;;;;0.00;0.00;;;13.20;89.00;;;;;;21123286;28;20384;-58
2022/11/06 11:38:41;;;;;;;0.17;0.10;;;13.30;89.50;;;;;;21143900;28;20039;-57
2022/11/06 11:48:54;;;;;;;0.20;0.10;;;13.10;90.00;;;;;;21108779;28;20458;-59
2022/11/06 11:59:02;;;;;;;0.80;0.45;;;12.70;90.20;;;;;;21120998;28;20565;-61
2022/11/06 12:09:04;;;;;;;1.15;0.80;;;12.60;92.20;;;;;;21107727;28;20090;-59
2022/11/06 12:19:09;;;;;;;0.50;0.22;;;12.70;91.70;;;;;;21061688;28;20031;-59
2022/11/06 12:29:18;;;;;;;1.40;0.68;;;12.60;91.20;;;;;;21097593;28;20085;-59
2022/11/06 12:39:26;;;;;;;0.85;0.50;;;12.10;91.20;;;;;;21111124;28;20496;-60
2022/11/06 12:50:00;;;;;;;1.35;0.60;;;12.10;92.70;;;;;;21102643;28;20069;-62
2022/11/06 13:00:30;;;;;;;1.17;0.43;;;11.80;94.10;;;;;;21126234;28;20109;-60
2022/11/06 13:10:51;;;;;;;1.47;0.30;;;11.60;94.40;;;;;;21131714;28;20088;-60
2022/11/06 13:21:19;;;;;;;0.70;0.40;;;10.80;95.10;;;;;;21103476;28;20043;-66
2022/11/06 13:31:30;;;;;;;1.33;0.50;;;10.10;94.30;;;;;;20728891;28;20104;-58
2022/11/06 13:41:33;;;;;;;0.80;0.45;;;9.50;95.30;;;;;;20716203;28;20045;-65
2022/11/06 13:51:54;;;;;;;1.15;0.70;;;9.10;94.80;;;;;;20769503;28;20091;-56
2022/11/06 14:02:26;;;;;;;1.77;0.60;;;8.80;95.60;;;;;;20815975;28;20370;-66
2022/11/06 14:12:29;;;;;;;0.88;0.43;;;8.70;97.00;;;;;;21117698;28;20024;-58
2022/11/06 14:22:35;;;;;;;1.13;0.60;;;8.40;96.50;;;;;;21067107;28;20093;-57
2022/11/06 14:32:44;;;;;;;1.55;0.70;;;8.20;97.90;;;;;;21099288;28;20039;-57
2022/11/06 14:42:47;;;;;;;1.70;0.55;;;7.80;97.00;;;;;;21068401;28;20043;-65
2022/11/06 14:52:54;;;;;;;1.60;0.65;;;7.60;97.20;;;;;;21099409;28;20073;-58
2022/11/06 15:02:57;;;;;;;2.42;0.65;;;7.30;97.00;;;;;;21111059;28;20040;-56
2022/11/06 15:13:26;;;;;;;2.40;0.80;;;6.80;99.90;;;;;;21052142;28;20443;-64
2022/11/06 15:24:11;;;;;;;1.35;0.60;;;6.20;99.90;;;;;;21123142;28;20035;-64
2022/11/06 15:34:28;;;;;;;0.52;0.30;;;5.70;99.90;;;;;;21093290;28;20088;-53
2022/11/06 15:44:30;;;;;;;1.23;0.50;;;5.10;99.90;;;;;;21093853;28;20027;-64
2022/11/06 15:54:39;;;;;;;0.93;0.30;;;4.60;99.90;;;;;;21130263;28;20496;-63
2022/11/06 16:04:44;;;;;;;0.80;0.30;;;4.20;99.90;;;;;;21057687;28;20093;-53
2022/11/06 16:14:47;;;;;;;1.17;0.30;;;3.90;99.90;;;;;;21107853;28;20085;-55
2022/11/06 16:24:53;;;;;;;8.70;7.00;;;3.80;99.90;;;;;;21105413;28;20097;-64
2022/11/06 16:34:55;;;;;;;1.50;0.10;;;3.60;99.90;;;;;;21123925;28;20543;-54
2022/11/06 16:45:07;;;;;;;0.70;0.10;;;3.50;99.90;;;;;;21088414;28;20043;-63
2022/11/06 16:55:13;;;;;;;0.40;0.20;;;3.60;99.90;;;;;;21094838;28;20550;-64
2022/11/06 17:05:20;;;;;;;0.35;0.10;;;3.30;99.90;;;;;;21025411;28;20036;-64
2022/11/06 17:15:25;;;;;;;0.82;0.20;;;3.10;99.90;;;;;;21053673;28;20052;-64
2022/11/06 17:25:30;;;;;;;0.75;0.28;;;3.00;99.90;;;;;;21085895;28;20094;-56
2022/11/06 17:35:33;;;;;;;0.80;0.20;;;3.10;99.90;;;;;;21062091;28;20032;-53
2022/11/06 17:45:38;;;;;;;0.77;0.20;;;3.30;99.90;;;;;;20968330;28;20094;-54
2022/11/06 17:55:40;;;;;;;0.73;0.20;;;3.60;99.90;;;;;;21067172;28;20109;-65
2022/11/06 18:05:43;;;;;;;0.60;0.20;;;3.90;99.90;;;;;;21092176;28;20172;-56
2022/11/06 18:15:46;;;;;;;0.65;0.10;;;3.70;99.90;;;;;;21033718;28;20044;-55
2022/11/06 18:25:57;;;;;;;0.40;0.13;;;3.60;99.90;;;;;;21049667;28;20398;-54
2022/11/06 18:36:06;;;;;;;0.50;0.10;;;3.50;99.90;;;;;;21069301;28;20550;-52
2022/11/06 18:46:17;;;;;;;0.13;0.10;;;3.40;99.90;;;;;;21094160;28;20039;-55
2022/11/06 18:56:20;;;;;;;;;;;3.20;99.90;;;;;;21048627;28;20543;-54
2022/11/06 19:06:23;;;;;;;0.20;0.10;;;3.00;99.90;;;;;;21044057;28;20386;-55
2022/11/06 19:16:26;;;;;;;0.65;0.10;;;2.90;99.90;;;;;;21037321;28;20113;-54
2022/11/06 19:26:29;;;;;;;0.38;0.00;;;2.90;99.90;;;;;;21061798;28;20032;-57
2022/11/06 19:36:32;;;;;;;0.20;0.10;;;2.80;99.90;;;;;;21060380;28;20436;-64
2022/11/06 19:46:36;;;;;;;1.27;0.10;;;2.60;99.90;;;;;;21009566;28;20056;-54
2022/11/06 19:56:38;;;;;;;0.82;0.17;;;2.50;99.90;;;;;;21059043;28;20113;-56
2022/11/06 20:06:42;;;;;;;0.82;0.10;;;2.50;99.90;;;;;;21058354;28;20550;-54
2022/11/06 20:16:46;;;;;;;0.10;0.03;;;2.50;99.90;;;;;;21058432;28;20032;-54
2022/11/06 20:26:49;;;;;;;0.43;0.10;;;2.60;99.90;;;;;;21023517;28;20040;-65
2022/11/06 20:36:53;;;;;;;0.45;0.10;;;2.60;99.90;;;;;;21055638;28;20040;-55
2022/11/06 20:46:56;;;;;;;0.50;0.20;;;2.40;99.90;;;;;;21055985;28;20453;-65
2022/11/06 20:56:59;;;;;;;1.10;0.20;;;2.50;99.90;;;;;;21034172;28;20105;-56
2022/11/06 21:07:02;;;;;;;0.30;0.20;;;2.40;99.90;;;;;;21006405;28;20063;-67
2022/11/06 21:17:05;;;;;;;0.63;0.20;;;2.60;99.90;;;;;;21051154;28;20036;-66
2022/11/06 21:27:09;;;;;;;0.50;0.30;;;2.90;99.90;;;;;;21035906;28;20093;-54
2022/11/06 21:37:12;;;;;;;0.35;0.20;;;2.90;99.90;;;;;;21018824;28;20502;-53
2022/11/06 21:47:15;;;;;;;1.35;0.38;;;2.90;99.90;;;;;;21058969;28;20093;-56
2022/11/06 21:57:18;;;;;;;1.15;0.45;;;2.80;99.90;;;;;;21107400;28;20036;-65
2022/11/06 22:07:20;;;;;;;0.77;0.35;;;2.60;99.90;;;;;;21096587;28;20039;-52
2022/11/06 22:17:23;;;;;;;1.10;0.55;;;2.60;99.90;;;;;;21134398;28;20031;-66
2022/11/06 22:27:25;;;;;;;1.75;0.45;;;2.70;99.90;;;;;;21088773;28;20035;-54
2022/11/06 22:37:28;;;;;;;1.42;0.47;;;2.60;99.90;;;;;;21055505;28;20039;-66
2022/11/06 22:47:31;;;;;;;1.30;0.50;;;2.90;99.90;;;;;;21131884;28;20039;-59
2022/11/06 22:57:34;;;;;;;1.60;0.60;;;3.20;99.90;;;;;;21135833;28;20032;-59
2022/11/06 23:07:36;;;;;;;1.95;0.50;;;3.40;99.90;;;;;;21109459;28;20049;-70
2022/11/06 23:17:39;;;;;;;2.42;0.63;;;3.70;99.90;;;;;;21128018;28;20032;-53
2022/11/06 23:27:42;;;;;;;0.98;0.35;;;3.90;99.90;;;;;;21070131;28;20028;-67
2022/11/06 23:37:44;;;;;;;1.27;0.70;;;3.80;99.90;;;;;;21094190;28;20036;-68
2022/11/06 23:47:49;;;;;;;0.95;0.50;;;3.90;99.90;;;;;;21076631;28;20109;-68
2022/11/06 23:57:51;;;;;;;1.08;0.40;;;4.10;99.90;;;;;;21131948;28;20077;-57
